Greenwood, Arkansas
Current Conditions -  °F | °C
As of 5:53 PM on Friday 24 Oct 2014 (Local Time) from KFSM Reporting Station
Clear Clear  
Wind Chill: 75°   Ceiling: Unl
Heat Index: 75°   Visibility: 10mi
Dew Point: 60°   Wind: 0mph
Humidity: 60%   Direction: NA
Pressure: 30.05"   Gusts: NA
Location:  35.22°N, 94.26°W
Report Text: KFSM 242253Z AUTO 00000KT 10SM CLR 24/16 A3005 RMK AO2 SLP173 T02390156 TSNO
Loading
Personal Weather Stations






























Interactive Weather Map
Tropical Storm Tracking
New forecast layout! Learn more

10-Day Weather Forecast

Advertisements
Track Severe Weather on mobile